sensor_id;sensor_type;location;lat;lon;timestamp;P1;durP1;ratioP1;P2;durP2;ratioP2
19897;SDS011;10111;50.814;4.572;2023-08-20T00:01:26;5.60;;;3.07;;
19897;SDS011;10111;50.814;4.572;2023-08-20T00:03:53;7.40;;;3.57;;
19897;SDS011;10111;50.814;4.572;2023-08-20T00:06:19;14.73;;;3.93;;
19897;SDS011;10111;50.814;4.572;2023-08-20T00:08:46;9.73;;;3.30;;
19897;SDS011;10111;50.814;4.572;2023-08-20T00:11:12;10.17;;;3.97;;
19897;SDS011;10111;50.814;4.572;2023-08-20T00:13:39;8.80;;;2.83;;
19897;SDS011;10111;50.814;4.572;2023-08-20T00:16:04;4.43;;;3.00;;
19897;SDS011;10111;50.814;4.572;2023-08-20T00:18:31;5.50;;;3.13;;
19897;SDS011;10111;50.814;4.572;2023-08-20T00:20:57;9.07;;;3.83;;
19897;SDS011;10111;50.814;4.572;2023-08-20T00:23:24;9.03;;;4.00;;
19897;SDS011;10111;50.814;4.572;2023-08-20T00:25:51;6.37;;;3.30;;
19897;SDS011;10111;50.814;4.572;2023-08-20T00:28:17;8.60;;;3.53;;
19897;SDS011;10111;50.814;4.572;2023-08-20T00:30:43;7.00;;;2.93;;
19897;SDS011;10111;50.814;4.572;2023-08-20T00:33:10;5.70;;;3.07;;
19897;SDS011;10111;50.814;4.572;2023-08-20T00:35:35;6.13;;;3.10;;
19897;SDS011;10111;50.814;4.572;2023-08-20T00:38:01;8.37;;;3.20;;
19897;SDS011;10111;50.814;4.572;2023-08-20T00:40:27;9.90;;;2.87;;
19897;SDS011;10111;50.814;4.572;2023-08-20T00:42:53;4.40;;;3.07;;
19897;SDS011;10111;50.814;4.572;2023-08-20T00:45:19;6.97;;;2.70;;
19897;SDS011;10111;50.814;4.572;2023-08-20T00:47:44;5.83;;;3.53;;
19897;SDS011;10111;50.814;4.572;2023-08-20T00:50:10;4.60;;;3.33;;
19897;SDS011;10111;50.814;4.572;2023-08-20T00:52:37;6.03;;;3.73;;
19897;SDS011;10111;50.814;4.572;2023-08-20T00:55:06;5.63;;;2.80;;
19897;SDS011;10111;50.814;4.572;2023-08-20T00:57:34;6.00;;;2.97;;
19897;SDS011;10111;50.814;4.572;2023-08-20T01:00:01;6.40;;;3.60;;
19897;SDS011;10111;50.814;4.572;2023-08-20T01:02:32;4.27;;;2.97;;
19897;SDS011;10111;50.814;4.572;2023-08-20T01:04:58;5.03;;;2.93;;
19897;SDS011;10111;50.814;4.572;2023-08-20T01:07:28;5.87;;;3.70;;
19897;SDS011;10111;50.814;4.572;2023-08-20T01:12:34;5.90;;;2.93;;
19897;SDS011;10111;50.814;4.572;2023-08-20T01:15:00;7.43;;;2.93;;
19897;SDS011;10111;50.814;4.572;2023-08-20T01:17:26;6.40;;;3.57;;
19897;SDS011;10111;50.814;4.572;2023-08-20T01:19:52;7.17;;;3.20;;
19897;SDS011;10111;50.814;4.572;2023-08-20T01:25:11;11.87;;;3.87;;
19897;SDS011;10111;50.814;4.572;2023-08-20T01:30:51;10.10;;;3.23;;
19897;SDS011;10111;50.814;4.572;2023-08-20T01:33:18;7.67;;;3.40;;
19897;SDS011;10111;50.814;4.572;2023-08-20T01:35:45;7.40;;;3.77;;
19897;SDS011;10111;50.814;4.572;2023-08-20T01:38:11;4.90;;;2.87;;
19897;SDS011;10111;50.814;4.572;2023-08-20T01:40:36;7.30;;;3.13;;
19897;SDS011;10111;50.814;4.572;2023-08-20T01:43:02;8.73;;;3.30;;
19897;SDS011;10111;50.814;4.572;2023-08-20T01:45:28;11.77;;;3.60;;
19897;SDS011;10111;50.814;4.572;2023-08-20T01:47:53;6.43;;;3.20;;
19897;SDS011;10111;50.814;4.572;2023-08-20T01:50:19;6.13;;;3.00;;
19897;SDS011;10111;50.814;4.572;2023-08-20T01:52:45;6.33;;;3.00;;
19897;SDS011;10111;50.814;4.572;2023-08-20T01:55:11;7.03;;;3.30;;
19897;SDS011;10111;50.814;4.572;2023-08-20T01:57:36;7.30;;;4.30;;
19897;SDS011;10111;50.814;4.572;2023-08-20T02:00:02;9.10;;;3.73;;
19897;SDS011;10111;50.814;4.572;2023-08-20T02:02:30;7.60;;;3.40;;
19897;SDS011;10111;50.814;4.572;2023-08-20T02:04:56;4.97;;;3.00;;
19897;SDS011;10111;50.814;4.572;2023-08-20T02:07:22;5.70;;;3.53;;
19897;SDS011;10111;50.814;4.572;2023-08-20T02:09:48;5.87;;;3.23;;
19897;SDS011;10111;50.814;4.572;2023-08-20T02:12:14;8.40;;;2.97;;
19897;SDS011;10111;50.814;4.572;2023-08-20T02:14:39;5.27;;;3.37;;
19897;SDS011;10111;50.814;4.572;2023-08-20T02:17:05;8.07;;;3.57;;
19897;SDS011;10111;50.814;4.572;2023-08-20T02:19:31;8.93;;;3.60;;
19897;SDS011;10111;50.814;4.572;2023-08-20T02:21:57;7.50;;;3.20;;
19897;SDS011;10111;50.814;4.572;2023-08-20T02:24:23;8.60;;;3.17;;
19897;SDS011;10111;50.814;4.572;2023-08-20T02:26:49;5.60;;;2.80;;
19897;SDS011;10111;50.814;4.572;2023-08-20T02:29:14;9.83;;;3.10;;
19897;SDS011;10111;50.814;4.572;2023-08-20T02:31:40;5.83;;;3.20;;
19897;SDS011;10111;50.814;4.572;2023-08-20T02:34:06;7.37;;;4.10;;
19897;SDS011;10111;50.814;4.572;2023-08-20T02:36:31;7.17;;;3.23;;
19897;SDS011;10111;50.814;4.572;2023-08-20T02:38:57;8.37;;;3.83;;
19897;SDS011;10111;50.814;4.572;2023-08-20T02:41:22;6.63;;;2.90;;
19897;SDS011;10111;50.814;4.572;2023-08-20T02:43:48;7.47;;;3.30;;
19897;SDS011;10111;50.814;4.572;2023-08-20T02:46:14;8.63;;;3.60;;
19897;SDS011;10111;50.814;4.572;2023-08-20T02:48:39;10.03;;;3.77;;
19897;SDS011;10111;50.814;4.572;2023-08-20T02:51:05;7.80;;;3.77;;
19897;SDS011;10111;50.814;4.572;2023-08-20T02:53:31;8.70;;;4.03;;
19897;SDS011;10111;50.814;4.572;2023-08-20T02:55:57;10.07;;;3.50;;
19897;SDS011;10111;50.814;4.572;2023-08-20T02:58:23;6.07;;;3.17;;
19897;SDS011;10111;50.814;4.572;2023-08-20T03:00:49;6.63;;;3.40;;
19897;SDS011;10111;50.814;4.572;2023-08-20T03:03:15;7.53;;;3.17;;
19897;SDS011;10111;50.814;4.572;2023-08-20T03:05:41;8.17;;;4.07;;
19897;SDS011;10111;50.814;4.572;2023-08-20T03:08:07;3.43;;;2.80;;
19897;SDS011;10111;50.814;4.572;2023-08-20T03:10:33;6.57;;;2.80;;
19897;SDS011;10111;50.814;4.572;2023-08-20T03:13:00;4.20;;;2.47;;
19897;SDS011;10111;50.814;4.572;2023-08-20T03:15:26;6.10;;;3.10;;
19897;SDS011;10111;50.814;4.572;2023-08-20T03:17:52;6.17;;;3.30;;
19897;SDS011;10111;50.814;4.572;2023-08-20T03:20:18;5.03;;;2.57;;
19897;SDS011;10111;50.814;4.572;2023-08-20T03:22:44;6.63;;;3.10;;
19897;SDS011;10111;50.814;4.572;2023-08-20T03:25:09;7.67;;;3.00;;
19897;SDS011;10111;50.814;4.572;2023-08-20T03:27:35;5.53;;;3.53;;
19897;SDS011;10111;50.814;4.572;2023-08-20T03:30:01;4.90;;;2.50;;
19897;SDS011;10111;50.814;4.572;2023-08-20T03:32:27;6.30;;;2.80;;
19897;SDS011;10111;50.814;4.572;2023-08-20T03:34:53;6.27;;;3.00;;
19897;SDS011;10111;50.814;4.572;2023-08-20T03:37:21;7.73;;;3.53;;
19897;SDS011;10111;50.814;4.572;2023-08-20T03:39:47;5.43;;;2.37;;
19897;SDS011;10111;50.814;4.572;2023-08-20T03:42:12;5.63;;;2.50;;
19897;SDS011;10111;50.814;4.572;2023-08-20T03:44:38;7.30;;;2.53;;
19897;SDS011;10111;50.814;4.572;2023-08-20T03:47:04;6.53;;;3.43;;
19897;SDS011;10111;50.814;4.572;2023-08-20T03:49:30;12.77;;;3.03;;
19897;SDS011;10111;50.814;4.572;2023-08-20T03:51:55;8.27;;;2.43;;
19897;SDS011;10111;50.814;4.572;2023-08-20T03:54:21;3.80;;;2.40;;
19897;SDS011;10111;50.814;4.572;2023-08-20T03:56:46;4.37;;;3.03;;
19897;SDS011;10111;50.814;4.572;2023-08-20T03:59:12;5.57;;;3.40;;
19897;SDS011;10111;50.814;4.572;2023-08-20T04:01:38;7.23;;;2.90;;
19897;SDS011;10111;50.814;4.572;2023-08-20T04:04:04;4.43;;;2.80;;
19897;SDS011;10111;50.814;4.572;2023-08-20T04:06:30;4.93;;;2.50;;
19897;SDS011;10111;50.814;4.572;2023-08-20T04:08:55;9.57;;;2.90;;
19897;SDS011;10111;50.814;4.572;2023-08-20T04:11:21;5.80;;;2.77;;
19897;SDS011;10111;50.814;4.572;2023-08-20T04:13:47;9.50;;;2.80;;
19897;SDS011;10111;50.814;4.572;2023-08-20T04:16:12;6.43;;;2.20;;
19897;SDS011;10111;50.814;4.572;2023-08-20T04:18:38;4.00;;;2.73;;
19897;SDS011;10111;50.814;4.572;2023-08-20T04:21:04;5.83;;;3.37;;
19897;SDS011;10111;50.814;4.572;2023-08-20T04:23:30;7.20;;;2.77;;
19897;SDS011;10111;50.814;4.572;2023-08-20T04:25:56;3.43;;;2.33;;
19897;SDS011;10111;50.814;4.572;2023-08-20T04:28:22;7.40;;;2.33;;
19897;SDS011;10111;50.814;4.572;2023-08-20T04:30:47;3.80;;;2.70;;
19897;SDS011;10111;50.814;4.572;2023-08-20T04:33:14;5.63;;;2.73;;
19897;SDS011;10111;50.814;4.572;2023-08-20T04:35:39;6.67;;;3.80;;
19897;SDS011;10111;50.814;4.572;2023-08-20T04:38:05;4.57;;;2.87;;
19897;SDS011;10111;50.814;4.572;2023-08-20T04:40:31;4.77;;;2.50;;
19897;SDS011;10111;50.814;4.572;2023-08-20T04:42:56;4.87;;;2.37;;
19897;SDS011;10111;50.814;4.572;2023-08-20T04:45:22;7.77;;;2.80;;
19897;SDS011;10111;50.814;4.572;2023-08-20T04:47:48;5.97;;;2.53;;
19897;SDS011;10111;50.814;4.572;2023-08-20T04:50:13;9.00;;;2.60;;
19897;SDS011;10111;50.814;4.572;2023-08-20T04:52:39;8.20;;;3.07;;
19897;SDS011;10111;50.814;4.572;2023-08-20T04:55:05;5.73;;;2.30;;
19897;SDS011;10111;50.814;4.572;2023-08-20T04:57:32;4.37;;;2.53;;
19897;SDS011;10111;50.814;4.572;2023-08-20T04:59:57;6.33;;;1.97;;
19897;SDS011;10111;50.814;4.572;2023-08-20T05:02:23;5.57;;;2.70;;
19897;SDS011;10111;50.814;4.572;2023-08-20T05:04:49;4.90;;;1.97;;
19897;SDS011;10111;50.814;4.572;2023-08-20T05:07:15;6.00;;;2.17;;
19897;SDS011;10111;50.814;4.572;2023-08-20T05:09:40;4.10;;;2.90;;
19897;SDS011;10111;50.814;4.572;2023-08-20T05:12:06;6.03;;;2.30;;
19897;SDS011;10111;50.814;4.572;2023-08-20T05:14:32;6.77;;;4.47;;
19897;SDS011;10111;50.814;4.572;2023-08-20T05:16:58;8.40;;;3.67;;
19897;SDS011;10111;50.814;4.572;2023-08-20T05:19:24;9.47;;;4.30;;
19897;SDS011;10111;50.814;4.572;2023-08-20T05:21:50;10.73;;;3.60;;
19897;SDS011;10111;50.814;4.572;2023-08-20T05:24:17;11.03;;;3.60;;
19897;SDS011;10111;50.814;4.572;2023-08-20T05:26:43;2.77;;;2.37;;
19897;SDS011;10111;50.814;4.572;2023-08-20T05:29:08;4.23;;;2.40;;
19897;SDS011;10111;50.814;4.572;2023-08-20T05:31:34;3.80;;;2.23;;
19897;SDS011;10111;50.814;4.572;2023-08-20T05:34:00;5.27;;;2.73;;
19897;SDS011;10111;50.814;4.572;2023-08-20T05:36:25;7.27;;;2.77;;
19897;SDS011;10111;50.814;4.572;2023-08-20T05:38:51;4.50;;;3.20;;
19897;SDS011;10111;50.814;4.572;2023-08-20T05:41:17;2.97;;;2.67;;
19897;SDS011;10111;50.814;4.572;2023-08-20T05:43:42;7.00;;;3.03;;
19897;SDS011;10111;50.814;4.572;2023-08-20T05:46:08;6.73;;;4.20;;
19897;SDS011;10111;50.814;4.572;2023-08-20T05:48:33;9.90;;;4.33;;
19897;SDS011;10111;50.814;4.572;2023-08-20T05:50:59;7.63;;;3.70;;
19897;SDS011;10111;50.814;4.572;2023-08-20T05:53:25;7.30;;;3.67;;
19897;SDS011;10111;50.814;4.572;2023-08-20T05:55:50;7.80;;;3.70;;
19897;SDS011;10111;50.814;4.572;2023-08-20T05:58:16;6.17;;;4.03;;
19897;SDS011;10111;50.814;4.572;2023-08-20T06:00:42;9.40;;;3.67;;
19897;SDS011;10111;50.814;4.572;2023-08-20T06:03:07;6.70;;;4.17;;
19897;SDS011;10111;50.814;4.572;2023-08-20T06:05:33;8.67;;;4.10;;
19897;SDS011;10111;50.814;4.572;2023-08-20T06:07:59;6.90;;;3.47;;
19897;SDS011;10111;50.814;4.572;2023-08-20T06:10:25;9.87;;;4.70;;
19897;SDS011;10111;50.814;4.572;2023-08-20T06:12:51;10.50;;;3.97;;
19897;SDS011;10111;50.814;4.572;2023-08-20T06:15:17;7.50;;;3.53;;
19897;SDS011;10111;50.814;4.572;2023-08-20T06:17:43;11.17;;;3.93;;
19897;SDS011;10111;50.814;4.572;2023-08-20T06:20:09;16.13;;;4.20;;
19897;SDS011;10111;50.814;4.572;2023-08-20T06:22:36;9.13;;;4.40;;
19897;SDS011;10111;50.814;4.572;2023-08-20T06:25:02;9.33;;;3.97;;
19897;SDS011;10111;50.814;4.572;2023-08-20T06:27:29;9.93;;;4.33;;
19897;SDS011;10111;50.814;4.572;2023-08-20T06:29:55;11.23;;;4.50;;
19897;SDS011;10111;50.814;4.572;2023-08-20T06:32:21;8.27;;;3.50;;
19897;SDS011;10111;50.814;4.572;2023-08-20T06:34:47;8.47;;;4.00;;
19897;SDS011;10111;50.814;4.572;2023-08-20T06:37:12;8.30;;;3.20;;
19897;SDS011;10111;50.814;4.572;2023-08-20T06:39:38;7.97;;;3.40;;
19897;SDS011;10111;50.814;4.572;2023-08-20T06:42:03;9.97;;;3.40;;
19897;SDS011;10111;50.814;4.572;2023-08-20T06:44:29;8.60;;;2.80;;
19897;SDS011;10111;50.814;4.572;2023-08-20T06:46:55;5.40;;;2.90;;
19897;SDS011;10111;50.814;4.572;2023-08-20T06:49:21;6.43;;;3.03;;
19897;SDS011;10111;50.814;4.572;2023-08-20T06:51:46;7.40;;;2.67;;
19897;SDS011;10111;50.814;4.572;2023-08-20T06:54:12;11.20;;;2.47;;
19897;SDS011;10111;50.814;4.572;2023-08-20T06:56:39;3.63;;;1.50;;
19897;SDS011;10111;50.814;4.572;2023-08-20T06:59:05;3.10;;;1.40;;
19897;SDS011;10111;50.814;4.572;2023-08-20T07:01:30;4.00;;;1.37;;
19897;SDS011;10111;50.814;4.572;2023-08-20T07:03:56;5.03;;;1.40;;
19897;SDS011;10111;50.814;4.572;2023-08-20T07:06:22;7.20;;;1.93;;
19897;SDS011;10111;50.814;4.572;2023-08-20T07:08:47;5.27;;;1.57;;
19897;SDS011;10111;50.814;4.572;2023-08-20T07:11:13;7.10;;;2.23;;
19897;SDS011;10111;50.814;4.572;2023-08-20T07:13:39;2.23;;;1.10;;
19897;SDS011;10111;50.814;4.572;2023-08-20T07:16:04;3.63;;;2.30;;
19897;SDS011;10111;50.814;4.572;2023-08-20T07:18:30;6.77;;;1.47;;
19897;SDS011;10111;50.814;4.572;2023-08-20T07:20:55;9.80;;;2.30;;
19897;SDS011;10111;50.814;4.572;2023-08-20T07:23:21;5.87;;;1.70;;
19897;SDS011;10111;50.814;4.572;2023-08-20T07:25:47;2.57;;;1.60;;
19897;SDS011;10111;50.814;4.572;2023-08-20T07:28:16;6.70;;;1.73;;
19897;SDS011;10111;50.814;4.572;2023-08-20T07:30:51;4.53;;;1.77;;
19897;SDS011;10111;50.814;4.572;2023-08-20T07:33:17;3.63;;;1.83;;
19897;SDS011;10111;50.814;4.572;2023-08-20T07:35:43;5.33;;;1.40;;
19897;SDS011;10111;50.814;4.572;2023-08-20T07:38:08;1.43;;;0.77;;
19897;SDS011;10111;50.814;4.572;2023-08-20T07:40:34;2.00;;;1.20;;
19897;SDS011;10111;50.814;4.572;2023-08-20T07:42:59;2.13;;;1.17;;
19897;SDS011;10111;50.814;4.572;2023-08-20T07:45:25;4.73;;;1.43;;
19897;SDS011;10111;50.814;4.572;2023-08-20T07:47:51;4.57;;;1.30;;
19897;SDS011;10111;50.814;4.572;2023-08-20T07:50:17;2.03;;;1.40;;
19897;SDS011;10111;50.814;4.572;2023-08-20T07:52:42;2.73;;;1.03;;
19897;SDS011;10111;50.814;4.572;2023-08-20T07:55:08;2.37;;;1.03;;
19897;SDS011;10111;50.814;4.572;2023-08-20T07:57:34;2.20;;;0.90;;
19897;SDS011;10111;50.814;4.572;2023-08-20T08:00:00;4.23;;;1.90;;
19897;SDS011;10111;50.814;4.572;2023-08-20T08:02:26;4.20;;;1.43;;
19897;SDS011;10111;50.814;4.572;2023-08-20T08:04:52;4.13;;;1.43;;
19897;SDS011;10111;50.814;4.572;2023-08-20T08:07:18;3.63;;;1.00;;
19897;SDS011;10111;50.814;4.572;2023-08-20T08:09:43;4.10;;;1.40;;
19897;SDS011;10111;50.814;4.572;2023-08-20T08:12:10;1.90;;;0.93;;
19897;SDS011;10111;50.814;4.572;2023-08-20T08:14:36;2.80;;;0.83;;
19897;SDS011;10111;50.814;4.572;2023-08-20T08:17:01;2.67;;;1.00;;
19897;SDS011;10111;50.814;4.572;2023-08-20T08:19:27;3.60;;;1.10;;
19897;SDS011;10111;50.814;4.572;2023-08-20T08:21:53;2.93;;;1.13;;
19897;SDS011;10111;50.814;4.572;2023-08-20T08:24:19;3.90;;;1.13;;
19897;SDS011;10111;50.814;4.572;2023-08-20T08:26:44;2.03;;;1.33;;
19897;SDS011;10111;50.814;4.572;2023-08-20T08:29:10;4.17;;;1.77;;
19897;SDS011;10111;50.814;4.572;2023-08-20T08:31:36;2.70;;;1.30;;
19897;SDS011;10111;50.814;4.572;2023-08-20T08:34:02;5.73;;;2.53;;
19897;SDS011;10111;50.814;4.572;2023-08-20T08:36:28;3.47;;;1.73;;
19897;SDS011;10111;50.814;4.572;2023-08-20T08:38:54;4.50;;;2.00;;
19897;SDS011;10111;50.814;4.572;2023-08-20T08:41:23;4.87;;;1.63;;
19897;SDS011;10111;50.814;4.572;2023-08-20T08:43:50;2.57;;;1.30;;
19897;SDS011;10111;50.814;4.572;2023-08-20T08:46:17;2.20;;;1.30;;
19897;SDS011;10111;50.814;4.572;2023-08-20T08:48:43;6.57;;;1.77;;
19897;SDS011;10111;50.814;4.572;2023-08-20T08:51:11;4.43;;;1.40;;
19897;SDS011;10111;50.814;4.572;2023-08-20T08:53:37;4.17;;;1.90;;
19897;SDS011;10111;50.814;4.572;2023-08-20T08:56:03;5.67;;;2.67;;
19897;SDS011;10111;50.814;4.572;2023-08-20T08:58:30;2.23;;;1.70;;
19897;SDS011;10111;50.814;4.572;2023-08-20T09:00:57;1.23;;;1.10;;
19897;SDS011;10111;50.814;4.572;2023-08-20T09:03:23;4.60;;;1.50;;
19897;SDS011;10111;50.814;4.572;2023-08-20T09:05:50;3.30;;;1.73;;
19897;SDS011;10111;50.814;4.572;2023-08-20T09:08:32;2.60;;;1.33;;
19897;SDS011;10111;50.814;4.572;2023-08-20T09:10:58;3.93;;;1.60;;
19897;SDS011;10111;50.814;4.572;2023-08-20T09:13:26;1.40;;;1.03;;
19897;SDS011;10111;50.814;4.572;2023-08-20T09:16:08;4.27;;;1.60;;
19897;SDS011;10111;50.814;4.572;2023-08-20T09:18:41;5.43;;;2.00;;
19897;SDS011;10111;50.814;4.572;2023-08-20T09:21:10;3.30;;;1.67;;
19897;SDS011;10111;50.814;4.572;2023-08-20T09:23:37;3.13;;;1.30;;
19897;SDS011;10111;50.814;4.572;2023-08-20T09:26:04;3.70;;;1.63;;
19897;SDS011;10111;50.814;4.572;2023-08-20T09:28:40;2.80;;;1.90;;
19897;SDS011;10111;50.814;4.572;2023-08-20T09:31:09;4.07;;;1.77;;
19897;SDS011;10111;50.814;4.572;2023-08-20T09:33:36;4.10;;;1.67;;
19897;SDS011;10111;50.814;4.572;2023-08-20T09:36:04;4.30;;;1.50;;
19897;SDS011;10111;50.814;4.572;2023-08-20T09:38:36;4.33;;;1.77;;
19897;SDS011;10111;50.814;4.572;2023-08-20T09:41:05;3.53;;;1.90;;
19897;SDS011;10111;50.814;4.572;2023-08-20T09:43:33;5.00;;;2.28;;
19897;SDS011;10111;50.814;4.572;2023-08-20T09:46:03;4.68;;;1.88;;
19897;SDS011;10111;50.814;4.572;2023-08-20T09:48:33;3.73;;;1.70;;
19897;SDS011;10111;50.814;4.572;2023-08-20T09:51:08;3.40;;;1.80;;
19897;SDS011;10111;50.814;4.572;2023-08-20T09:53:44;5.87;;;2.50;;
19897;SDS011;10111;50.814;4.572;2023-08-20T09:56:21;4.47;;;1.30;;
19897;SDS011;10111;50.814;4.572;2023-08-20T09:58:52;7.70;;;2.37;;
19897;SDS011;10111;50.814;4.572;2023-08-20T10:01:19;4.43;;;1.50;;
19897;SDS011;10111;50.814;4.572;2023-08-20T10:03:45;3.90;;;1.83;;
19897;SDS011;10111;50.814;4.572;2023-08-20T10:06:11;3.80;;;1.50;;
19897;SDS011;10111;50.814;4.572;2023-08-20T10:08:37;3.73;;;2.10;;
19897;SDS011;10111;50.814;4.572;2023-08-20T10:11:03;1.63;;;1.30;;
19897;SDS011;10111;50.814;4.572;2023-08-20T10:13:29;3.00;;;1.23;;
19897;SDS011;10111;50.814;4.572;2023-08-20T10:15:55;3.20;;;1.83;;
19897;SDS011;10111;50.814;4.572;2023-08-20T10:18:21;2.93;;;1.67;;
19897;SDS011;10111;50.814;4.572;2023-08-20T10:20:49;3.17;;;1.60;;
19897;SDS011;10111;50.814;4.572;2023-08-20T10:23:15;4.70;;;1.70;;
19897;SDS011;10111;50.814;4.572;2023-08-20T10:25:54;3.73;;;2.03;;
19897;SDS011;10111;50.814;4.572;2023-08-20T10:28:31;6.03;;;1.40;;
19897;SDS011;10111;50.814;4.572;2023-08-20T10:33:28;1.60;;;1.50;;
19897;SDS011;10111;50.814;4.572;2023-08-20T10:35:54;3.23;;;1.37;;
19897;SDS011;10111;50.814;4.572;2023-08-20T10:38:19;5.33;;;1.83;;
19897;SDS011;10111;50.814;4.572;2023-08-20T10:40:47;4.20;;;1.67;;
19897;SDS011;10111;50.814;4.572;2023-08-20T10:43:31;7.03;;;2.03;;
19897;SDS011;10111;50.814;4.572;2023-08-20T10:48:49;2.90;;;1.30;;
19897;SDS011;10111;50.814;4.572;2023-08-20T10:51:16;7.93;;;2.13;;
19897;SDS011;10111;50.814;4.572;2023-08-20T10:56:42;2.03;;;1.43;;
19897;SDS011;10111;50.814;4.572;2023-08-20T11:01:58;3.03;;;1.43;;
19897;SDS011;10111;50.814;4.572;2023-08-20T11:04:25;3.17;;;1.53;;
19897;SDS011;10111;50.814;4.572;2023-08-20T11:06:57;3.43;;;1.70;;
19897;SDS011;10111;50.814;4.572;2023-08-20T11:09:25;6.50;;;1.63;;
19897;SDS011;10111;50.814;4.572;2023-08-20T11:11:52;4.97;;;1.70;;
19897;SDS011;10111;50.814;4.572;2023-08-20T11:14:19;4.43;;;1.50;;
19897;SDS011;10111;50.814;4.572;2023-08-20T11:16:45;3.33;;;1.30;;
19897;SDS011;10111;50.814;4.572;2023-08-20T11:19:12;3.07;;;1.60;;
19897;SDS011;10111;50.814;4.572;2023-08-20T11:21:39;4.13;;;1.70;;
19897;SDS011;10111;50.814;4.572;2023-08-20T11:24:06;5.47;;;1.40;;
19897;SDS011;10111;50.814;4.572;2023-08-20T11:26:36;3.40;;;1.93;;
19897;SDS011;10111;50.814;4.572;2023-08-20T11:29:11;2.83;;;1.57;;
19897;SDS011;10111;50.814;4.572;2023-08-20T11:31:38;2.77;;;1.63;;
19897;SDS011;10111;50.814;4.572;2023-08-20T11:34:04;3.93;;;1.77;;
19897;SDS011;10111;50.814;4.572;2023-08-20T11:36:31;1.63;;;1.30;;
19897;SDS011;10111;50.814;4.572;2023-08-20T11:38:56;11.73;;;2.00;;
19897;SDS011;10111;50.814;4.572;2023-08-20T11:41:22;3.63;;;2.17;;
19897;SDS011;10111;50.814;4.572;2023-08-20T11:43:50;6.40;;;1.77;;
19897;SDS011;10111;50.814;4.572;2023-08-20T11:46:21;6.40;;;1.93;;
19897;SDS011;10111;50.814;4.572;2023-08-20T11:51:51;1.90;;;1.17;;
19897;SDS011;10111;50.814;4.572;2023-08-20T11:54:17;5.57;;;1.77;;
19897;SDS011;10111;50.814;4.572;2023-08-20T11:56:50;1.63;;;1.43;;
19897;SDS011;10111;50.814;4.572;2023-08-20T11:59:17;4.13;;;1.70;;
19897;SDS011;10111;50.814;4.572;2023-08-20T12:01:54;3.17;;;1.60;;
19897;SDS011;10111;50.814;4.572;2023-08-20T12:04:23;3.90;;;1.70;;
19897;SDS011;10111;50.814;4.572;2023-08-20T12:09:35;7.17;;;1.67;;
19897;SDS011;10111;50.814;4.572;2023-08-20T12:12:01;5.07;;;1.47;;
19897;SDS011;10111;50.814;4.572;2023-08-20T12:14:27;4.03;;;1.60;;
19897;SDS011;10111;50.814;4.572;2023-08-20T12:16:53;2.60;;;1.90;;
19897;SDS011;10111;50.814;4.572;2023-08-20T12:19:19;4.20;;;1.37;;
19897;SDS011;10111;50.814;4.572;2023-08-20T12:21:45;7.83;;;1.60;;
19897;SDS011;10111;50.814;4.572;2023-08-20T12:24:11;5.33;;;1.67;;
19897;SDS011;10111;50.814;4.572;2023-08-20T12:26:37;4.47;;;1.70;;
19897;SDS011;10111;50.814;4.572;2023-08-20T12:29:03;4.53;;;1.50;;
19897;SDS011;10111;50.814;4.572;2023-08-20T12:31:29;3.50;;;1.67;;
19897;SDS011;10111;50.814;4.572;2023-08-20T12:33:56;4.63;;;2.00;;
19897;SDS011;10111;50.814;4.572;2023-08-20T12:36:21;4.47;;;1.57;;
19897;SDS011;10111;50.814;4.572;2023-08-20T12:38:47;2.57;;;1.37;;
19897;SDS011;10111;50.814;4.572;2023-08-20T12:41:12;2.10;;;1.20;;
19897;SDS011;10111;50.814;4.572;2023-08-20T12:43:38;3.13;;;1.77;;
19897;SDS011;10111;50.814;4.572;2023-08-20T12:46:04;5.53;;;1.70;;
19897;SDS011;10111;50.814;4.572;2023-08-20T12:48:29;2.47;;;1.40;;
19897;SDS011;10111;50.814;4.572;2023-08-20T12:50:55;4.20;;;1.53;;
19897;SDS011;10111;50.814;4.572;2023-08-20T12:53:22;2.93;;;1.33;;
19897;SDS011;10111;50.814;4.572;2023-08-20T12:55:48;3.10;;;1.90;;
19897;SDS011;10111;50.814;4.572;2023-08-20T12:58:13;4.17;;;1.80;;
19897;SDS011;10111;50.814;4.572;2023-08-20T13:00:39;2.13;;;1.50;;
19897;SDS011;10111;50.814;4.572;2023-08-20T13:03:05;1.63;;;1.27;;
19897;SDS011;10111;50.814;4.572;2023-08-20T13:05:31;13.40;;;3.23;;
19897;SDS011;10111;50.814;4.572;2023-08-20T13:07:57;2.20;;;1.70;;
19897;SDS011;10111;50.814;4.572;2023-08-20T13:10:23;2.73;;;1.60;;
19897;SDS011;10111;50.814;4.572;2023-08-20T13:12:53;4.87;;;1.93;;
19897;SDS011;10111;50.814;4.572;2023-08-20T13:15:19;3.03;;;1.40;;
19897;SDS011;10111;50.814;4.572;2023-08-20T13:17:47;7.57;;;2.43;;
19897;SDS011;10111;50.814;4.572;2023-08-20T13:20:14;7.43;;;1.73;;
19897;SDS011;10111;50.814;4.572;2023-08-20T13:22:40;9.02;;;1.60;;
19897;SDS011;10111;50.814;4.572;2023-08-20T13:25:06;4.53;;;1.50;;
19897;SDS011;10111;50.814;4.572;2023-08-20T13:27:32;4.78;;;1.52;;
19897;SDS011;10111;50.814;4.572;2023-08-20T13:29:58;5.33;;;1.87;;
19897;SDS011;10111;50.814;4.572;2023-08-20T13:32:24;1.23;;;1.13;;
19897;SDS011;10111;50.814;4.572;2023-08-20T13:34:50;2.93;;;1.50;;
19897;SDS011;10111;50.814;4.572;2023-08-20T13:37:16;1.67;;;1.50;;
19897;SDS011;10111;50.814;4.572;2023-08-20T13:39:42;3.03;;;1.47;;
19897;SDS011;10111;50.814;4.572;2023-08-20T13:42:08;5.13;;;1.83;;
19897;SDS011;10111;50.814;4.572;2023-08-20T13:44:33;5.20;;;1.40;;
19897;SDS011;10111;50.814;4.572;2023-08-20T13:46:59;6.50;;;1.77;;
19897;SDS011;10111;50.814;4.572;2023-08-20T13:49:25;2.25;;;1.20;;
19897;SDS011;10111;50.814;4.572;2023-08-20T13:51:51;2.45;;;1.17;;
19897;SDS011;10111;50.814;4.572;2023-08-20T13:54:16;3.28;;;1.58;;
19897;SDS011;10111;50.814;4.572;2023-08-20T13:56:42;4.80;;;1.47;;
19897;SDS011;10111;50.814;4.572;2023-08-20T13:59:11;6.57;;;1.70;;
19897;SDS011;10111;50.814;4.572;2023-08-20T14:01:37;4.07;;;1.67;;
19897;SDS011;10111;50.814;4.572;2023-08-20T14:04:02;2.57;;;1.10;;
19897;SDS011;10111;50.814;4.572;2023-08-20T14:06:28;3.03;;;1.77;;
19897;SDS011;10111;50.814;4.572;2023-08-20T14:08:54;3.17;;;1.60;;
19897;SDS011;10111;50.814;4.572;2023-08-20T14:11:20;2.10;;;1.50;;
19897;SDS011;10111;50.814;4.572;2023-08-20T14:13:47;9.00;;;1.70;;
19897;SDS011;10111;50.814;4.572;2023-08-20T14:16:13;1.53;;;1.10;;
19897;SDS011;10111;50.814;4.572;2023-08-20T14:18:39;4.13;;;1.87;;
19897;SDS011;10111;50.814;4.572;2023-08-20T14:21:05;3.20;;;1.40;;
19897;SDS011;10111;50.814;4.572;2023-08-20T14:23:31;1.73;;;1.63;;
19897;SDS011;10111;50.814;4.572;2023-08-20T14:25:56;2.60;;;1.47;;
19897;SDS011;10111;50.814;4.572;2023-08-20T14:28:22;4.33;;;1.63;;
19897;SDS011;10111;50.814;4.572;2023-08-20T14:30:48;3.80;;;1.47;;
19897;SDS011;10111;50.814;4.572;2023-08-20T14:33:15;2.85;;;2.13;;
19897;SDS011;10111;50.814;4.572;2023-08-20T14:35:41;4.20;;;1.73;;
19897;SDS011;10111;50.814;4.572;2023-08-20T14:38:07;5.10;;;1.50;;
19897;SDS011;10111;50.814;4.572;2023-08-20T14:40:41;2.03;;;1.60;;
19897;SDS011;10111;50.814;4.572;2023-08-20T14:43:07;4.10;;;1.33;;
19897;SDS011;10111;50.814;4.572;2023-08-20T14:45:33;2.55;;;1.40;;
19897;SDS011;10111;50.814;4.572;2023-08-20T14:47:59;3.83;;;1.48;;
19897;SDS011;10111;50.814;4.572;2023-08-20T14:50:24;2.58;;;1.67;;
19897;SDS011;10111;50.814;4.572;2023-08-20T14:52:50;6.32;;;1.50;;
19897;SDS011;10111;50.814;4.572;2023-08-20T14:55:19;2.95;;;1.48;;
19897;SDS011;10111;50.814;4.572;2023-08-20T14:57:44;5.10;;;1.80;;
19897;SDS011;10111;50.814;4.572;2023-08-20T15:00:11;1.67;;;1.10;;
19897;SDS011;10111;50.814;4.572;2023-08-20T15:02:40;2.47;;;1.33;;
19897;SDS011;10111;50.814;4.572;2023-08-20T15:05:06;2.70;;;1.50;;
19897;SDS011;10111;50.814;4.572;2023-08-20T15:07:32;2.55;;;1.30;;
19897;SDS011;10111;50.814;4.572;2023-08-20T15:09:58;3.70;;;1.00;;